sensor_id;sensor_type;location;lat;lon;timestamp;temperature;humidity
13426;DHT22;6785;57.918;12.530;2023-04-01T00:01:05;-2.20;99.90
13426;DHT22;6785;57.918;12.530;2023-04-01T00:03:33;-2.20;99.90
13426;DHT22;6785;57.918;12.530;2023-04-01T00:06:01;-2.30;99.90
13426;DHT22;6785;57.918;12.530;2023-04-01T00:08:29;-2.20;99.90
13426;DHT22;6785;57.918;12.530;2023-04-01T00:10:56;-2.30;99.90
13426;DHT22;6785;57.918;12.530;2023-04-01T00:13:24;-2.40;99.90
13426;DHT22;6785;57.918;12.530;2023-04-01T00:15:52;-2.40;99.90
13426;DHT22;6785;57.918;12.530;2023-04-01T00:18:19;-2.50;99.90
13426;DHT22;6785;57.918;12.530;2023-04-01T00:20:46;-2.50;99.90
13426;DHT22;6785;57.918;12.530;2023-04-01T00:23:13;-2.60;99.90
13426;DHT22;6785;57.918;12.530;2023-04-01T00:25:42;-2.60;99.90
13426;DHT22;6785;57.918;12.530;2023-04-01T00:28:09;-2.60;99.90
13426;DHT22;6785;57.918;12.530;2023-04-01T00:30:36;-2.60;99.90
13426;DHT22;6785;57.918;12.530;2023-04-01T00:33:03;-2.70;99.90
13426;DHT22;6785;57.918;12.530;2023-04-01T00:35:30;-2.70;99.90
13426;DHT22;6785;57.918;12.530;2023-04-01T00:37:58;-2.80;99.90
13426;DHT22;6785;57.918;12.530;2023-04-01T00:40:27;-2.80;99.90
13426;DHT22;6785;57.918;12.530;2023-04-01T00:42:56;-2.80;99.90
13426;DHT22;6785;57.918;12.530;2023-04-01T00:45:30;-2.90;99.90
13426;DHT22;6785;57.918;12.530;2023-04-01T00:48:02;-2.90;99.90
13426;DHT22;6785;57.918;12.530;2023-04-01T00:50:31;-2.90;99.90
13426;DHT22;6785;57.918;12.530;2023-04-01T00:53:01;-2.90;99.90
13426;DHT22;6785;57.918;12.530;2023-04-01T00:55:30;-3.00;99.90
13426;DHT22;6785;57.918;12.530;2023-04-01T00:58:00;-3.00;99.90
13426;DHT22;6785;57.918;12.530;2023-04-01T01:00:28;-3.00;99.90
13426;DHT22;6785;57.918;12.530;2023-04-01T01:02:55;-3.10;99.90
13426;DHT22;6785;57.918;12.530;2023-04-01T01:05:29;-3.10;99.90
13426;DHT22;6785;57.918;12.530;2023-04-01T01:08:07;-3.20;99.90
13426;DHT22;6785;57.918;12.530;2023-04-01T01:10:39;-3.20;99.90
13426;DHT22;6785;57.918;12.530;2023-04-01T01:13:12;-3.20;99.90
13426;DHT22;6785;57.918;12.530;2023-04-01T01:15:45;-3.30;99.90
13426;DHT22;6785;57.918;12.530;2023-04-01T01:18:18;-3.30;99.90
13426;DHT22;6785;57.918;12.530;2023-04-01T01:21:14;-3.40;99.90
13426;DHT22;6785;57.918;12.530;2023-04-01T01:24:08;-3.40;99.90
13426;DHT22;6785;57.918;12.530;2023-04-01T01:26:46;-3.40;99.90
13426;DHT22;6785;57.918;12.530;2023-04-01T01:32:16;-3.50;99.90
13426;DHT22;6785;57.918;12.530;2023-04-01T01:34:51;-3.50;99.90
13426;DHT22;6785;57.918;12.530;2023-04-01T01:37:25;-3.50;99.90
13426;DHT22;6785;57.918;12.530;2023-04-01T01:39:56;-3.50;99.90
13426;DHT22;6785;57.918;12.530;2023-04-01T01:42:26;-3.50;99.90
13426;DHT22;6785;57.918;12.530;2023-04-01T01:44:56;-3.50;99.90
13426;DHT22;6785;57.918;12.530;2023-04-01T01:47:25;-3.50;99.90
13426;DHT22;6785;57.918;12.530;2023-04-01T01:49:53;-3.60;99.90
13426;DHT22;6785;57.918;12.530;2023-04-01T01:52:23;-3.60;99.90
13426;DHT22;6785;57.918;12.530;2023-04-01T01:54:51;-3.60;99.90
13426;DHT22;6785;57.918;12.530;2023-04-01T01:57:20;-3.60;99.90
13426;DHT22;6785;57.918;12.530;2023-04-01T01:59:47;-3.60;99.90
13426;DHT22;6785;57.918;12.530;2023-04-01T02:02:15;-3.70;99.90
13426;DHT22;6785;57.918;12.530;2023-04-01T02:04:44;-3.70;99.90
13426;DHT22;6785;57.918;12.530;2023-04-01T02:07:16;-3.70;99.90
13426;DHT22;6785;57.918;12.530;2023-04-01T02:09:46;-3.70;99.90
13426;DHT22;6785;57.918;12.530;2023-04-01T02:12:15;-3.80;99.90
13426;DHT22;6785;57.918;12.530;2023-04-01T02:14:47;-3.90;99.90
13426;DHT22;6785;57.918;12.530;2023-04-01T02:17:18;-3.90;99.90
13426;DHT22;6785;57.918;12.530;2023-04-01T02:19:48;-4.00;99.90
13426;DHT22;6785;57.918;12.530;2023-04-01T02:22:20;-4.10;99.90
13426;DHT22;6785;57.918;12.530;2023-04-01T02:24:50;-4.20;99.90
13426;DHT22;6785;57.918;12.530;2023-04-01T02:27:19;-4.20;99.90
13426;DHT22;6785;57.918;12.530;2023-04-01T02:29:46;-4.20;99.90
13426;DHT22;6785;57.918;12.530;2023-04-01T02:32:14;-4.30;99.90
13426;DHT22;6785;57.918;12.530;2023-04-01T02:34:43;-4.30;99.90
13426;DHT22;6785;57.918;12.530;2023-04-01T02:37:11;-4.40;99.90
13426;DHT22;6785;57.918;12.530;2023-04-01T02:39:38;-4.40;99.90
13426;DHT22;6785;57.918;12.530;2023-04-01T02:42:06;-4.50;99.90
13426;DHT22;6785;57.918;12.530;2023-04-01T02:44:33;-4.50;99.90
13426;DHT22;6785;57.918;12.530;2023-04-01T02:46:59;-4.60;99.90
13426;DHT22;6785;57.918;12.530;2023-04-01T02:49:26;-4.60;99.90
13426;DHT22;6785;57.918;12.530;2023-04-01T02:51:53;-4.60;99.90
13426;DHT22;6785;57.918;12.530;2023-04-01T02:54:20;-4.60;99.90
13426;DHT22;6785;57.918;12.530;2023-04-01T02:56:46;-4.60;99.90
13426;DHT22;6785;57.918;12.530;2023-04-01T02:59:15;-4.60;99.90
13426;DHT22;6785;57.918;12.530;2023-04-01T03:01:41;-4.60;99.90
13426;DHT22;6785;57.918;12.530;2023-04-01T03:04:08;-4.60;99.90
13426;DHT22;6785;57.918;12.530;2023-04-01T03:06:35;-4.60;99.90
13426;DHT22;6785;57.918;12.530;2023-04-01T03:09:02;-4.60;99.90
13426;DHT22;6785;57.918;12.530;2023-04-01T03:11:29;-4.70;99.90
13426;DHT22;6785;57.918;12.530;2023-04-01T03:13:55;-4.70;99.90
13426;DHT22;6785;57.918;12.530;2023-04-01T03:16:23;-4.70;99.90
13426;DHT22;6785;57.918;12.530;2023-04-01T03:18:50;-4.80;99.90
13426;DHT22;6785;57.918;12.530;2023-04-01T03:21:20;-4.80;99.90
13426;DHT22;6785;57.918;12.530;2023-04-01T03:23:47;-4.90;99.90
13426;DHT22;6785;57.918;12.530;2023-04-01T03:26:15;-4.90;99.90
13426;DHT22;6785;57.918;12.530;2023-04-01T03:28:42;-4.90;99.90
13426;DHT22;6785;57.918;12.530;2023-04-01T03:31:08;-4.90;99.90
13426;DHT22;6785;57.918;12.530;2023-04-01T03:33:37;-5.00;99.90
13426;DHT22;6785;57.918;12.530;2023-04-01T03:36:04;-5.00;99.90
13426;DHT22;6785;57.918;12.530;2023-04-01T03:38:32;-5.00;99.90
13426;DHT22;6785;57.918;12.530;2023-04-01T03:40:58;-5.00;99.90
13426;DHT22;6785;57.918;12.530;2023-04-01T03:43:25;-5.00;99.90
13426;DHT22;6785;57.918;12.530;2023-04-01T03:45:52;-5.00;99.90
13426;DHT22;6785;57.918;12.530;2023-04-01T03:48:19;-5.00;99.90
13426;DHT22;6785;57.918;12.530;2023-04-01T03:50:48;-5.00;99.90
13426;DHT22;6785;57.918;12.530;2023-04-01T03:53:14;-5.00;99.90
13426;DHT22;6785;57.918;12.530;2023-04-01T03:55:41;-5.10;99.90
13426;DHT22;6785;57.918;12.530;2023-04-01T03:58:08;-5.10;99.90
13426;DHT22;6785;57.918;12.530;2023-04-01T04:00:35;-5.10;99.90
13426;DHT22;6785;57.918;12.530;2023-04-01T04:03:02;-5.10;99.90
13426;DHT22;6785;57.918;12.530;2023-04-01T04:05:29;-5.20;99.90
13426;DHT22;6785;57.918;12.530;2023-04-01T04:07:57;-5.20;99.90
13426;DHT22;6785;57.918;12.530;2023-04-01T04:10:24;-5.20;99.90
13426;DHT22;6785;57.918;12.530;2023-04-01T04:12:52;-5.30;99.90
13426;DHT22;6785;57.918;12.530;2023-04-01T04:15:19;-5.30;99.90
13426;DHT22;6785;57.918;12.530;2023-04-01T04:17:46;-5.30;99.90
13426;DHT22;6785;57.918;12.530;2023-04-01T04:20:12;-5.30;99.90
13426;DHT22;6785;57.918;12.530;2023-04-01T04:22:39;-5.30;99.90
13426;DHT22;6785;57.918;12.530;2023-04-01T04:25:08;-5.40;99.90
13426;DHT22;6785;57.918;12.530;2023-04-01T04:27:35;-5.40;99.90
13426;DHT22;6785;57.918;12.530;2023-04-01T04:30:02;-5.40;99.90
13426;DHT22;6785;57.918;12.530;2023-04-01T04:32:30;-5.50;99.90
13426;DHT22;6785;57.918;12.530;2023-04-01T04:34:56;-5.50;99.90
13426;DHT22;6785;57.918;12.530;2023-04-01T04:37:23;-5.50;99.90
13426;DHT22;6785;57.918;12.530;2023-04-01T04:39:51;-5.50;99.90
13426;DHT22;6785;57.918;12.530;2023-04-01T04:42:19;-5.50;99.90
13426;DHT22;6785;57.918;12.530;2023-04-01T04:44:46;-5.50;99.90
13426;DHT22;6785;57.918;12.530;2023-04-01T04:47:13;-5.50;99.90
13426;DHT22;6785;57.918;12.530;2023-04-01T04:49:39;-5.50;99.90
13426;DHT22;6785;57.918;12.530;2023-04-01T04:52:06;-5.50;99.90
13426;DHT22;6785;57.918;12.530;2023-04-01T04:54:33;-5.60;99.90
13426;DHT22;6785;57.918;12.530;2023-04-01T04:57:00;-5.60;99.90
13426;DHT22;6785;57.918;12.530;2023-04-01T04:59:28;-5.60;99.90
13426;DHT22;6785;57.918;12.530;2023-04-01T05:01:54;-5.60;99.90
13426;DHT22;6785;57.918;12.530;2023-04-01T05:04:21;-5.60;99.90
13426;DHT22;6785;57.918;12.530;2023-04-01T05:06:48;-5.60;99.90
13426;DHT22;6785;57.918;12.530;2023-04-01T05:09:14;-5.60;99.90
13426;DHT22;6785;57.918;12.530;2023-04-01T05:11:41;-5.60;99.90
13426;DHT22;6785;57.918;12.530;2023-04-01T05:14:12;-5.50;99.90
13426;DHT22;6785;57.918;12.530;2023-04-01T05:16:40;-5.50;99.90
13426;DHT22;6785;57.918;12.530;2023-04-01T05:19:07;-5.50;99.90
13426;DHT22;6785;57.918;12.530;2023-04-01T05:21:34;-5.40;99.90
13426;DHT22;6785;57.918;12.530;2023-04-01T05:24:01;-5.40;99.90
13426;DHT22;6785;57.918;12.530;2023-04-01T05:26:27;-5.40;99.90
13426;DHT22;6785;57.918;12.530;2023-04-01T05:28:54;-5.30;99.90
13426;DHT22;6785;57.918;12.530;2023-04-01T05:31:21;-5.30;99.90
13426;DHT22;6785;57.918;12.530;2023-04-01T05:33:50;-5.30;99.90
13426;DHT22;6785;57.918;12.530;2023-04-01T05:36:17;-5.20;99.90
13426;DHT22;6785;57.918;12.530;2023-04-01T05:38:44;-5.20;99.90
13426;DHT22;6785;57.918;12.530;2023-04-01T05:41:12;-5.20;99.90
13426;DHT22;6785;57.918;12.530;2023-04-01T05:43:40;-5.20;99.90
13426;DHT22;6785;57.918;12.530;2023-04-01T05:46:07;-5.10;99.90
13426;DHT22;6785;57.918;12.530;2023-04-01T05:48:34;-5.00;99.90
13426;DHT22;6785;57.918;12.530;2023-04-01T05:51:03;-5.00;99.90
13426;DHT22;6785;57.918;12.530;2023-04-01T05:53:30;-4.90;99.90
13426;DHT22;6785;57.918;12.530;2023-04-01T05:56:01;-4.80;99.90
13426;DHT22;6785;57.918;12.530;2023-04-01T05:58:28;-4.80;99.90
13426;DHT22;6785;57.918;12.530;2023-04-01T06:01:00;-4.70;99.90
13426;DHT22;6785;57.918;12.530;2023-04-01T06:03:27;-4.70;99.90
13426;DHT22;6785;57.918;12.530;2023-04-01T06:05:54;-4.60;99.90
13426;DHT22;6785;57.918;12.530;2023-04-01T06:08:22;-4.50;99.90
13426;DHT22;6785;57.918;12.530;2023-04-01T06:10:55;-4.40;99.90
13426;DHT22;6785;57.918;12.530;2023-04-01T06:13:37;-4.40;99.90
13426;DHT22;6785;57.918;12.530;2023-04-01T06:16:12;-4.30;99.90
13426;DHT22;6785;57.918;12.530;2023-04-01T06:19:02;-4.20;99.90
13426;DHT22;6785;57.918;12.530;2023-04-01T06:22:09;-4.10;99.90
13426;DHT22;6785;57.918;12.530;2023-04-01T06:24:59;-4.10;99.90
13426;DHT22;6785;57.918;12.530;2023-04-01T06:27:45;-4.00;99.90
13426;DHT22;6785;57.918;12.530;2023-04-01T06:30:29;-3.80;99.90
13426;DHT22;6785;57.918;12.530;2023-04-01T06:33:10;-3.50;99.90
13426;DHT22;6785;57.918;12.530;2023-04-01T06:36:01;-3.40;99.90
13426;DHT22;6785;57.918;12.530;2023-04-01T06:39:17;-3.20;99.90
13426;DHT22;6785;57.918;12.530;2023-04-01T06:42:14;-3.00;99.90
13426;DHT22;6785;57.918;12.530;2023-04-01T06:44:52;-2.80;99.90
13426;DHT22;6785;57.918;12.530;2023-04-01T06:47:29;-2.70;99.90
13426;DHT22;6785;57.918;12.530;2023-04-01T06:50:05;-2.60;99.90
13426;DHT22;6785;57.918;12.530;2023-04-01T06:52:41;-2.40;99.90
13426;DHT22;6785;57.918;12.530;2023-04-01T06:55:26;-2.20;99.90
13426;DHT22;6785;57.918;12.530;2023-04-01T06:57:56;-2.00;99.90
13426;DHT22;6785;57.918;12.530;2023-04-01T07:00:29;-1.90;99.90
13426;DHT22;6785;57.918;12.530;2023-04-01T07:03:02;-1.80;99.90
13426;DHT22;6785;57.918;12.530;2023-04-01T07:05:32;-1.70;99.90
13426;DHT22;6785;57.918;12.530;2023-04-01T07:08:02;-1.50;99.90
13426;DHT22;6785;57.918;12.530;2023-04-01T07:10:35;-1.50;99.90
13426;DHT22;6785;57.918;12.530;2023-04-01T07:13:05;-1.30;99.90
13426;DHT22;6785;57.918;12.530;2023-04-01T07:15:37;-1.10;99.90
13426;DHT22;6785;57.918;12.530;2023-04-01T07:18:12;-0.80;99.90
13426;DHT22;6785;57.918;12.530;2023-04-01T07:20:41;-0.60;99.90
13426;DHT22;6785;57.918;12.530;2023-04-01T07:23:16;-0.40;99.90
13426;DHT22;6785;57.918;12.530;2023-04-01T07:25:50;-0.30;99.90
13426;DHT22;6785;57.918;12.530;2023-04-01T07:28:19;-0.20;99.90
13426;DHT22;6785;57.918;12.530;2023-04-01T07:30:57;0.00;99.90
13426;DHT22;6785;57.918;12.530;2023-04-01T07:33:29;0.10;99.90
13426;DHT22;6785;57.918;12.530;2023-04-01T07:36:05;0.00;99.90
13426;DHT22;6785;57.918;12.530;2023-04-01T07:38:40;0.00;99.90
13426;DHT22;6785;57.918;12.530;2023-04-01T07:41:12;0.20;99.90
13426;DHT22;6785;57.918;12.530;2023-04-01T07:43:57;0.40;99.90
13426;DHT22;6785;57.918;12.530;2023-04-01T07:46:50;0.60;99.90
13426;DHT22;6785;57.918;12.530;2023-04-01T07:49:24;0.80;99.90
13426;DHT22;6785;57.918;12.530;2023-04-01T07:51:57;0.70;99.90
13426;DHT22;6785;57.918;12.530;2023-04-01T07:54:32;0.90;99.90
13426;DHT22;6785;57.918;12.530;2023-04-01T07:57:03;1.00;99.90
13426;DHT22;6785;57.918;12.530;2023-04-01T07:59:38;1.00;99.90
13426;DHT22;6785;57.918;12.530;2023-04-01T08:02:16;0.80;99.90
13426;DHT22;6785;57.918;12.530;2023-04-01T08:04:58;0.70;99.90
13426;DHT22;6785;57.918;12.530;2023-04-01T08:07:32;0.60;99.90
13426;DHT22;6785;57.918;12.530;2023-04-01T08:10:06;0.70;99.90
13426;DHT22;6785;57.918;12.530;2023-04-01T08:12:44;0.90;99.90
13426;DHT22;6785;57.918;12.530;2023-04-01T08:15:21;1.00;99.90
13426;DHT22;6785;57.918;12.530;2023-04-01T08:17:59;1.10;99.90
13426;DHT22;6785;57.918;12.530;2023-04-01T08:20:34;1.30;99.90
13426;DHT22;6785;57.918;12.530;2023-04-01T08:23:07;1.60;99.90
13426;DHT22;6785;57.918;12.530;2023-04-01T08:25:39;1.50;99.90
13426;DHT22;6785;57.918;12.530;2023-04-01T08:28:12;1.40;99.90
13426;DHT22;6785;57.918;12.530;2023-04-01T08:30:45;1.60;99.90
13426;DHT22;6785;57.918;12.530;2023-04-01T08:33:17;1.80;99.90
13426;DHT22;6785;57.918;12.530;2023-04-01T08:35:50;1.70;99.90
13426;DHT22;6785;57.918;12.530;2023-04-01T08:38:22;1.60;99.90
13426;DHT22;6785;57.918;12.530;2023-04-01T08:41:06;1.80;99.90
13426;DHT22;6785;57.918;12.530;2023-04-01T08:43:51;1.90;99.90
13426;DHT22;6785;57.918;12.530;2023-04-01T08:46:45;1.90;99.90
13426;DHT22;6785;57.918;12.530;2023-04-01T08:49:34;1.80;99.90
13426;DHT22;6785;57.918;12.530;2023-04-01T08:52:19;1.60;99.90
13426;DHT22;6785;57.918;12.530;2023-04-01T09:01:14;1.80;99.90
13426;DHT22;6785;57.918;12.530;2023-04-01T09:04:08;1.90;99.90
13426;DHT22;6785;57.918;12.530;2023-04-01T09:06:51;2.00;99.90
13426;DHT22;6785;57.918;12.530;2023-04-01T09:12:55;2.20;99.90
13426;DHT22;6785;57.918;12.530;2023-04-01T09:15:49;2.20;99.90
13426;DHT22;6785;57.918;12.530;2023-04-01T09:18:28;2.20;99.90
13426;DHT22;6785;57.918;12.530;2023-04-01T09:27:03;2.40;99.90
13426;DHT22;6785;57.918;12.530;2023-04-01T09:29:42;2.50;99.90
13426;DHT22;6785;57.918;12.530;2023-04-01T09:32:33;2.50;99.90
13426;DHT22;6785;57.918;12.530;2023-04-01T09:35:21;2.60;99.90
13426;DHT22;6785;57.918;12.530;2023-04-01T09:37:55;2.70;99.90
13426;DHT22;6785;57.918;12.530;2023-04-01T09:40:37;2.70;99.90
13426;DHT22;6785;57.918;12.530;2023-04-01T09:43:26;2.70;99.90
13426;DHT22;6785;57.918;12.530;2023-04-01T09:46:09;2.80;99.90
13426;DHT22;6785;57.918;12.530;2023-04-01T09:49:02;2.70;99.90
13426;DHT22;6785;57.918;12.530;2023-04-01T09:51:37;2.60;99.90
13426;DHT22;6785;57.918;12.530;2023-04-01T09:54:17;2.80;99.90
13426;DHT22;6785;57.918;12.530;2023-04-01T09:57:22;2.90;99.90
13426;DHT22;6785;57.918;12.530;2023-04-01T10:03:42;3.00;99.90
13426;DHT22;6785;57.918;12.530;2023-04-01T10:12:41;3.20;99.90
13426;DHT22;6785;57.918;12.530;2023-04-01T10:15:34;3.30;99.90
13426;DHT22;6785;57.918;12.530;2023-04-01T10:21:24;3.30;99.90
13426;DHT22;6785;57.918;12.530;2023-04-01T10:27:37;3.20;99.90
13426;DHT22;6785;57.918;12.530;2023-04-01T10:36:55;3.30;99.90
13426;DHT22;6785;57.918;12.530;2023-04-01T10:40:02;3.30;99.90
13426;DHT22;6785;57.918;12.530;2023-04-01T10:43:09;3.50;99.90
13426;DHT22;6785;57.918;12.530;2023-04-01T10:49:10;3.50;99.90
13426;DHT22;6785;57.918;12.530;2023-04-01T10:54:47;3.60;99.90
13426;DHT22;6785;57.918;12.530;2023-04-01T10:57:33;3.70;99.90
13426;DHT22;6785;57.918;12.530;2023-04-01T11:00:27;3.70;99.90
13426;DHT22;6785;57.918;12.530;2023-04-01T11:03:33;3.60;99.90
13426;DHT22;6785;57.918;12.530;2023-04-01T11:09:49;3.70;99.90
13426;DHT22;6785;57.918;12.530;2023-04-01T11:15:48;3.90;99.90
13426;DHT22;6785;57.918;12.530;2023-04-01T11:19:06;4.00;99.90
13426;DHT22;6785;57.918;12.530;2023-04-01T11:21:54;4.00;99.90
13426;DHT22;6785;57.918;12.530;2023-04-01T11:27:38;4.10;99.90
13426;DHT22;6785;57.918;12.530;2023-04-01T11:30:14;4.30;99.90
13426;DHT22;6785;57.918;12.530;2023-04-01T11:33:03;4.30;99.90
13426;DHT22;6785;57.918;12.530;2023-04-01T11:36:04;4.40;99.90
13426;DHT22;6785;57.918;12.530;2023-04-01T11:38:51;4.50;99.90
13426;DHT22;6785;57.918;12.530;2023-04-01T11:44:09;4.50;99.90
13426;DHT22;6785;57.918;12.530;2023-04-01T11:46:48;4.50;99.90
13426;DHT22;6785;57.918;12.530;2023-04-01T11:49:29;4.60;99.90
13426;DHT22;6785;57.918;12.530;2023-04-01T11:52:08;4.60;99.90
13426;DHT22;6785;57.918;12.530;2023-04-01T11:55:02;4.80;99.90
13426;DHT22;6785;57.918;12.530;2023-04-01T11:57:46;4.80;99.90
13426;DHT22;6785;57.918;12.530;2023-04-01T12:00:38;4.80;99.90
13426;DHT22;6785;57.918;12.530;2023-04-01T12:03:37;4.80;99.90
13426;DHT22;6785;57.918;12.530;2023-04-01T12:06:15;4.80;99.90
13426;DHT22;6785;57.918;12.530;2023-04-01T12:08:48;4.80;99.90
13426;DHT22;6785;57.918;12.530;2023-04-01T12:13:53;4.80;99.90
13426;DHT22;6785;57.918;12.530;2023-04-01T12:16:33;4.80;99.90
13426;DHT22;6785;57.918;12.530;2023-04-01T12:19:10;5.20;99.90
13426;DHT22;6785;57.918;12.530;2023-04-01T12:21:45;5.00;99.90
13426;DHT22;6785;57.918;12.530;2023-04-01T12:24:36;5.00;99.90
13426;DHT22;6785;57.918;12.530;2023-04-01T12:27:23;5.00;99.90
13426;DHT22;6785;57.918;12.530;2023-04-01T12:30:22;5.00;99.90
13426;DHT22;6785;57.918;12.530;2023-04-01T12:33:00;4.90;99.90
13426;DHT22;6785;57.918;12.530;2023-04-01T12:35:34;4.90;99.90
13426;DHT22;6785;57.918;12.530;2023-04-01T12:38:14;5.00;99.90
13426;DHT22;6785;57.918;12.530;2023-04-01T12:41:02;5.00;99.90
13426;DHT22;6785;57.918;12.530;2023-04-01T12:46:42;5.00;99.90
13426;DHT22;6785;57.918;12.530;2023-04-01T12:49:31;5.00;99.90
13426;DHT22;6785;57.918;12.530;2023-04-01T12:52:07;5.10;99.90
13426;DHT22;6785;57.918;12.530;2023-04-01T12:55:00;5.10;99.90
13426;DHT22;6785;57.918;12.530;2023-04-01T12:57:46;5.20;99.90
13426;DHT22;6785;57.918;12.530;2023-04-01T13:00:39;5.20;99.90
13426;DHT22;6785;57.918;12.530;2023-04-01T13:03:22;5.20;99.90
13426;DHT22;6785;57.918;12.530;2023-04-01T13:06:13;5.10;99.90
13426;DHT22;6785;57.918;12.530;2023-04-01T13:08:50;4.90;99.90
13426;DHT22;6785;57.918;12.530;2023-04-01T13:14:13;5.00;99.90
13426;DHT22;6785;57.918;12.530;2023-04-01T13:16:46;4.90;99.90
13426;DHT22;6785;57.918;12.530;2023-04-01T13:19:19;5.00;99.90
13426;DHT22;6785;57.918;12.530;2023-04-01T13:21:53;5.00;99.90
13426;DHT22;6785;57.918;12.530;2023-04-01T13:24:44;5.00;99.90
13426;DHT22;6785;57.918;12.530;2023-04-01T13:27:16;5.00;99.90
13426;DHT22;6785;57.918;12.530;2023-04-01T13:30:02;5.00;99.90
13426;DHT22;6785;57.918;12.530;2023-04-01T13:32:36;5.00;99.90
13426;DHT22;6785;57.918;12.530;2023-04-01T13:35:23;5.00;99.90
13426;DHT22;6785;57.918;12.530;2023-04-01T13:38:06;4.90;99.90
13426;DHT22;6785;57.918;12.530;2023-04-01T13:40:49;4.90;99.90
13426;DHT22;6785;57.918;12.530;2023-04-01T13:43:21;5.00;99.90
13426;DHT22;6785;57.918;12.530;2023-04-01T13:46:12;4.90;99.90
13426;DHT22;6785;57.918;12.530;2023-04-01T13:48:57;4.90;99.90
13426;DHT22;6785;57.918;12.530;2023-04-01T13:52:01;5.00;99.90
13426;DHT22;6785;57.918;12.530;2023-04-01T13:55:10;5.10;99.90
13426;DHT22;6785;57.918;12.530;2023-04-01T13:58:00;5.10;99.90
13426;DHT22;6785;57.918;12.530;2023-04-01T14:00:39;5.10;99.90
13426;DHT22;6785;57.918;12.530;2023-04-01T14:03:32;5.10;99.90
13426;DHT22;6785;57.918;12.530;2023-04-01T14:06:27;5.00;99.90
13426;DHT22;6785;57.918;12.530;2023-04-01T14:09:20;5.00;99.90
13426;DHT22;6785;57.918;12.530;2023-04-01T14:12:00;4.90;99.90
13426;DHT22;6785;57.918;12.530;2023-04-01T14:14:39;4.90;99.90
13426;DHT22;6785;57.918;12.530;2023-04-01T14:17:17;4.80;99.90
13426;DHT22;6785;57.918;12.530;2023-04-01T14:19:59;4.80;99.90
13426;DHT22;6785;57.918;12.530;2023-04-01T14:22:34;4.80;99.90
13426;DHT22;6785;57.918;12.530;2023-04-01T14:25:39;4.80;99.90
13426;DHT22;6785;57.918;12.530;2023-04-01T14:28:18;4.90;99.90
13426;DHT22;6785;57.918;12.530;2023-04-01T14:33:46;4.90;99.90
13426;DHT22;6785;57.918;12.530;2023-04-01T14:36:43;4.90;99.90
13426;DHT22;6785;57.918;12.530;2023-04-01T14:39:29;4.90;99.90
13426;DHT22;6785;57.918;12.530;2023-04-01T14:42:15;4.80;99.90
13426;DHT22;6785;57.918;12.530;2023-04-01T14:45:19;4.70;99.90
13426;DHT22;6785;57.918;12.530;2023-04-01T14:47:50;4.60;99.90
13426;DHT22;6785;57.918;12.530;2023-04-01T14:50:21;4.50;99.90
13426;DHT22;6785;57.918;12.530;2023-04-01T14:52:57;4.50;99.90
13426;DHT22;6785;57.918;12.530;2023-04-01T14:55:31;4.50;99.90
13426;DHT22;6785;57.918;12.530;2023-04-01T14:58:00;4.50;99.90
13426;DHT22;6785;57.918;12.530;2023-04-01T15:00:46;4.50;99.90
13426;DHT22;6785;57.918;12.530;2023-04-01T15:03:19;4.50;99.90
13426;DHT22;6785;57.918;12.530;2023-04-01T15:05:49;4.50;99.90
13426;DHT22;6785;57.918;12.530;2023-04-01T15:08:21;4.50;99.90
13426;DHT22;6785;57.918;12.530;2023-04-01T15:10:58;4.50;99.90
13426;DHT22;6785;57.918;12.530;2023-04-01T15:13:43;4.50;99.90
13426;DHT22;6785;57.918;12.530;2023-04-01T15:16:19;4.40;99.90
13426;DHT22;6785;57.918;12.530;2023-04-01T15:18:56;4.40;99.90
13426;DHT22;6785;57.918;12.530;2023-04-01T15:21:55;4.40;99.90
13426;DHT22;6785;57.918;12.530;2023-04-01T15:24:35;4.40;99.90
13426;DHT22;6785;57.918;12.530;2023-04-01T15:27:18;4.30;99.90
13426;DHT22;6785;57.918;12.530;2023-04-01T15:32:46;4.40;99.90
13426;DHT22;6785;57.918;12.530;2023-04-01T15:35:30;4.30;99.90
13426;DHT22;6785;57.918;12.530;2023-04-01T15:38:05;4.30;99.90
13426;DHT22;6785;57.918;12.530;2023-04-01T15:40:44;4.30;99.90
13426;DHT22;6785;57.918;12.530;2023-04-01T15:43:22;4.20;99.90
13426;DHT22;6785;57.918;12.530;2023-04-01T15:45:57;4.20;99.90
13426;DHT22;6785;57.918;12.530;2023-04-01T15:48:39;4.20;99.90
13426;DHT22;6785;57.918;12.530;2023-04-01T15:51:21;4.20;99.90
13426;DHT22;6785;57.918;12.530;2023-04-01T15:54:16;4.20;99.90
13426;DHT22;6785;57.918;12.530;2023-04-01T15:57:04;4.10;99.90
13426;DHT22;6785;57.918;12.530;2023-04-01T16:02:56;4.10;99.90
13426;DHT22;6785;57.918;12.530;2023-04-01T16:05:55;4.10;99.90
13426;DHT22;6785;57.918;12.530;2023-04-01T16:08:47;4.10;99.90
13426;DHT22;6785;57.918;12.530;2023-04-01T16:11:24;4.10;99.90
13426;DHT22;6785;57.918;12.530;2023-04-01T16:14:04;4.20;99.90
13426;DHT22;6785;57.918;12.530;2023-04-01T16:16:50;4.10;99.90
13426;DHT22;6785;57.918;12.530;2023-04-01T16:19:32;4.10;99.90
13426;DHT22;6785;57.918;12.530;2023-04-01T16:22:05;4.10;99.90
13426;DHT22;6785;57.918;12.530;2023-04-01T16:24:35;4.10;99.90
13426;DHT22;6785;57.918;12.530;2023-04-01T16:27:12;4.10;99.90
13426;DHT22;6785;57.918;12.530;2023-04-01T16:29:46;4.00;99.90
13426;DHT22;6785;57.918;12.530;2023-04-01T16:32:19;4.00;99.90
13426;DHT22;6785;57.918;12.530;2023-04-01T16:34:56;4.00;99.90
13426;DHT22;6785;57.918;12.530;2023-04-01T16:37:32;4.00;99.90
13426;DHT22;6785;57.918;12.530;2023-04-01T16:40:13;3.90;99.90
13426;DHT22;6785;57.918;12.530;2023-04-01T16:42:47;3.90;99.90
13426;DHT22;6785;57.918;12.530;2023-04-01T16:45:32;3.80;99.90
13426;DHT22;6785;57.918;12.530;2023-04-01T16:48:05;3.70;99.90
13426;DHT22;6785;57.918;12.530;2023-04-01T16:50:43;3.70;99.90
13426;DHT22;6785;57.918;12.530;2023-04-01T16:53:17;3.60;99.90
13426;DHT22;6785;57.918;12.530;2023-04-01T16:55:49;3.60;99.90
13426;DHT22;6785;57.918;12.530;2023-04-01T16:58:23;3.60;99.90
13426;DHT22;6785;57.918;12.530;2023-04-01T17:00:58;3.50;99.90
13426;DHT22;6785;57.918;12.530;2023-04-01T17:03:30;3.40;99.90
13426;DHT22;6785;57.918;12.530;2023-04-01T17:06:07;3.40;99.90
13426;DHT22;6785;57.918;12.530;2023-04-01T17:08:55;3.30;99.90
13426;DHT22;6785;57.918;12.530;2023-04-01T17:11:27;3.20;99.90
13426;DHT22;6785;57.918;12.530;2023-04-01T17:14:08;3.20;99.90
13426;DHT22;6785;57.918;12.530;2023-04-01T17:17:04;3.10;99.90
13426;DHT22;6785;57.918;12.530;2023-04-01T17:19:48;3.00;99.90
13426;DHT22;6785;57.918;12.530;2023-04-01T17:22:25;2.90;99.90
13426;DHT22;6785;57.918;12.530;2023-04-01T17:25:07;2.90;99.90
13426;DHT22;6785;57.918;12.530;2023-04-01T17:27:42;2.90;99.90
13426;DHT22;6785;57.918;12.530;2023-04-01T17:30:28;2.90;99.90
13426;DHT22;6785;57.918;12.530;2023-04-01T17:33:34;2.80;99.90
13426;DHT22;6785;57.918;12.530;2023-04-01T17:36:09;2.70;99.90
13426;DHT22;6785;57.918;12.530;2023-04-01T17:39:07;2.70;99.90
13426;DHT22;6785;57.918;12.530;2023-04-01T17:41:45;2.60;99.90
13426;DHT22;6785;57.918;12.530;2023-04-01T17:44:23;2.60;99.90
13426;DHT22;6785;57.918;12.530;2023-04-01T17:47:21;2.50;99.90
13426;DHT22;6785;57.918;12.530;2023-04-01T17:50:00;2.30;99.90
13426;DHT22;6785;57.918;12.530;2023-04-01T17:52:31;2.20;99.90
13426;DHT22;6785;57.918;12.530;2023-04-01T17:55:14;2.20;99.90
13426;DHT22;6785;57.918;12.530;2023-04-01T17:57:46;2.10;99.90